TimePST,TemperatureF,Dew PointF,Humidity,Sea Level PressureIn,VisibilityMPH,Wind Direction,Wind SpeedMPH,Gust SpeedMPH,PrecipitationIn,Events,Conditions,WindDirDegrees,DateUTC
12:00 AM,48.2,44.6,87,30.20,12.0,NW,6.9,-,N/A,,Overcast,310,2012-11-06 08:00:00
1:00 AM,48.2,46.4,93,30.19,12.0,NW,3.5,-,N/A,,Overcast,310,2012-11-06 09:00:00
2:00 AM,48.2,46.4,93,30.16,12.0,Calm,Calm,-,N/A,,Overcast,0,2012-11-06 10:00:00
3:00 AM,48.2,46.4,93,30.13,12.0,Calm,Calm,-,N/A,,Overcast,0,2012-11-06 11:00:00
3:42 AM,48.2,-9999,N/A,-9999,10.0,Calm,Calm,-,N/A,Rain,Light Rain Showers,0,2012-11-06 11:42:00
4:00 AM,49,47,88,30.10,12,Calm,Calm,,,Rain,Light Rain Showers,,2012-11-06 12:00:00
4:00 AM,48.2,46.4,93,30.10,12.0,Calm,Calm,-,N/A,Rain,Light Rain Showers,0,2012-11-06 12:00:00
5:00 AM,48.2,46.4,93,30.09,12.0,NNE,3.5,-,N/A,Rain,Light Rain Showers,20,2012-11-06 13:00:00
6:00 AM,48.2,46.4,93,30.07,12.0,Calm,Calm,-,N/A,,Overcast,0,2012-11-06 14:00:00
6:16 AM,48.2,-9999,N/A,-9999,12.0,NW,6.9,-,N/A,Rain,Light Rain Showers,310,2012-11-06 14:16:00
7:00 AM,48.2,46.4,93,30.06,12.0,Calm,Calm,-,N/A,Rain,Light Rain Showers,0,2012-11-06 15:00:00
8:00 AM,48.2,46.4,93,30.06,8.0,Calm,Calm,-,N/A,Rain,Light Rain Showers,0,2012-11-06 16:00:00
9:00 AM,50.0,46.4,87,30.02,10.0,North,5.8,-,N/A,Rain,Light Rain Showers,10,2012-11-06 17:00:00
9:51 AM,50.0,-9999,N/A,-9999,3.0,NW,5.8,-,N/A,Rain,Light Rain Showers,310,2012-11-06 17:51:00
10:00 AM,49,47,90,30.02,4,NW,4.6,,,Rain,Light Rain Showers,320,2012-11-06 18:00:00
10:00 AM,48.2,46.4,93,30.02,4.0,NNW,4.6,-,N/A,Rain,Light Rain Showers,330,2012-11-06 18:00:00
11:00 AM,48.2,46.4,93,29.99,6.0,ENE,6.9,-,N/A,Rain,Light Rain,60,2012-11-06 19:00:00
11:14 AM,48.2,-9999,N/A,-9999,12.0,ESE,4.6,-,N/A,,Overcast,120,2012-11-06 19:14:00
11:37 AM,48.2,-9999,N/A,-9999,6.0,ESE,4.6,-,N/A,Rain,Light Rain,110,2012-11-06 19:37:00
12:00 PM,48.2,46.4,93,29.96,8.0,East,9.2,-,N/A,Rain,Light Rain,100,2012-11-06 20:00:00
12:15 PM,48.2,-9999,N/A,-9999,12.0,ESE,8.1,-,N/A,,Overcast,110,2012-11-06 20:15:00
1:00 PM,48.2,46.4,93,29.94,12.0,East,9.2,-,N/A,,Overcast,100,2012-11-06 21:00:00
2:00 PM,48.2,46.4,93,29.94,12.0,East,11.5,-,N/A,,Overcast,100,2012-11-06 22:00:00
3:00 PM,48.2,46.4,93,29.92,12.0,ESE,15.0,-,N/A,,Overcast,110,2012-11-06 23:00:00
4:00 PM,50,47,85,29.90,12,ESE,16.1,,,,Partly Cloudy,110,2012-11-07 00:00:00
4:00 PM,50.0,46.4,87,29.90,12.0,ESE,17.3,-,N/A,,Mostly Cloudy,110,2012-11-07 00:00:00
5:00 PM,50.0,46.4,87,29.89,12.0,ESE,15.0,-,N/A,,Overcast,110,2012-11-07 01:00:00
6:00 PM,50.0,48.2,94,29.88,12.0,ESE,13.8,-,N/A,,Overcast,110,2012-11-07 02:00:00
7:00 PM,50.0,46.4,87,29.88,15.0,SE,16.1,-,N/A,,Partly Cloudy,140,2012-11-07 03:00:00
8:00 PM,51.8,46.4,82,29.89,15.0,South,18.4,25.3,N/A,,Partly Cloudy,180,2012-11-07 04:00:00
9:00 PM,51.8,46.4,82,29.92,15.0,South,16.1,27.6,N/A,,Partly Cloudy,190,2012-11-07 05:00:00
9:52 PM,51.8,-9999,N/A,-9999,12.0,SW,15.0,23.0,N/A,Rain,Light Rain,220,2012-11-07 05:52:00
10:00 PM,52,45,69,29.94,12,SW,15.0,,,Rain,Light Rain,230,2012-11-07 06:00:00
10:00 PM,51.8,44.6,76,29.94,12.0,WSW,13.8,23.0,N/A,Rain,Light Rain,240,2012-11-07 06:00:00
10:29 PM,51.8,-9999,N/A,-9999,15.0,WSW,8.1,-,N/A,,Mostly Cloudy,240,2012-11-07 06:29:00
11:00 PM,51.8,42.8,71,29.96,15.0,SW,8.1,-,N/A,,Mostly Cloudy,230,2012-11-07 07:00:00